ADDS METAR Data

Data at: 0456 UTC 20 Apr 2018

METAR for:KHYA (Hyannis/Barnstable M, MA, US)
Text:KHYA 200356Z AUTO 30009KT 10SM -RA SCT034 SCT044 OVC075 05/03 A2979 RMK AO2 RAB11 SLP088 P0000 T00500028
Temperature: 5.0°C ( 41°F)
Dewpoint: 2.8°C ( 37°F) [RH = 86%]
Pressure (altimeter):29.79 inches Hg (1008.9 mb) [Sea level pressure: 1008.8 mb]
Winds:from the WNW (300 degrees) at 10 MPH (9 knots; 4.6 m/s)
Visibility:10 or more sm (16+ km)
Ceiling:7500 feet AGL
Clouds: scattered clouds at 3400 feet AGL, scattered clouds at 4400 feet AGL, overcast cloud deck at 7500 feet AGL
Weather:-RA (light rain)
QC Flag:automated observation with no human augmentation